Terminal Aerodrome Forecast
Issued by NWS

Home | Current Version | Previous Version | Text Only | Print | Product List | Glossary On
Versions: 1 2 3 4 5 6 7 8 9 10 11 12 13 14 15 16
000
FTUS42 KTAE 011738
TAFDHN
TAF
KDHN 011738Z 0118/0218 26010G15KT P6SM BKN040
     FM020000 20004KT P6SM SCT250
     FM020600 VRB03KT 2SM BR OVC005
      TEMPO 0209/0213 1SM BR OVC001
     FM021500 17005KT P6SM SCT050 BKN250=

USA.gov is the U.S. government's official web portal to all federal, state and local government web resources and services.